Time;durP1;ratioP1;P1;durP2;ratioP2;P2;SDS_P1;SDS_P2;PMS_P1;PMS_P2;Temp;Humidity;BMP_temperature;BMP_pressure;BME280_temperature;BME280_humidity;BME280_pressure;Samples;Min_cycle;Max_cycle;Signal;HPM_P1;HPM_P2
2021/03/16 00:00:28;;;;;;;;;;;7.80;90.20;;;;;;4317909;33;20080;-77
2021/03/16 00:02:56;;;;;;;;;;;7.80;90.20;;;;;;4306317;33;20046;-77
2021/03/16 00:05:26;;;;;;;;;;;7.80;90.20;;;;;;4318345;33;20010;-77
2021/03/16 00:07:52;;;;;;;;;;;7.80;90.20;;;;;;4318948;33;20020;-77
2021/03/16 00:10:22;;;;;;;;;;;7.80;90.10;;;;;;4318822;33;20061;-77
2021/03/16 00:12:51;;;;;;;;;;;7.70;90.10;;;;;;4319857;33;20039;-77
2021/03/16 00:15:21;;;;;;;;;;;7.70;90.50;;;;;;4318392;33;20003;-77
2021/03/16 00:17:51;;;;;;;;;;;7.70;90.20;;;;;;4318411;33;20065;-77
2021/03/16 00:20:20;;;;;;;;;;;7.70;90.20;;;;;;4318441;33;20045;-77
2021/03/16 00:22:50;;;;;;;;;;;7.70;90.20;;;;;;4319494;33;20079;-77
2021/03/16 00:25:17;;;;;;;;;;;7.70;90.10;;;;;;4317547;33;33915;-77
2021/03/16 00:27:46;;;;;;;;;;;7.60;90.10;;;;;;4319400;33;20043;-77
2021/03/16 00:30:14;;;;;;;;;;;7.60;90.20;;;;;;4317975;33;19990;-77
2021/03/16 00:32:41;;;;;;;;;;;7.60;90.20;;;;;;4318856;33;27332;-77
2021/03/16 00:35:08;;;;;;;;;;;7.60;90.20;;;;;;4318056;33;20085;-77
2021/03/16 00:37:38;;;;;;;;;;;7.60;90.20;;;;;;4318085;33;20041;-77
2021/03/16 00:40:05;;;;;;;;;;;7.60;90.20;;;;;;4317565;33;24240;-77
2021/03/16 00:42:34;;;;;;;;;;;7.60;90.10;;;;;;4319463;33;20025;-77
2021/03/16 00:45:04;;;;;;;;;;;7.60;90.10;;;;;;4305795;33;20053;-77
2021/03/16 00:47:33;;;;;;;;;;;7.60;90.10;;;;;;4317756;33;20002;-76
2021/03/16 00:50:03;;;;;;;;;;;7.60;90.10;;;;;;4318214;33;20012;-77
2021/03/16 00:52:30;;;;;;;;;;;7.50;90.10;;;;;;4318278;33;22515;-77
2021/03/16 00:54:59;;;;;;;;;;;7.50;90.20;;;;;;4305759;33;20109;-77
2021/03/16 00:57:26;;;;;;;;;;;7.50;90.20;;;;;;4318567;33;20021;-77
2021/03/16 00:59:56;;;;;;;;;;;7.50;90.30;;;;;;4317877;33;20069;-77
2021/03/16 01:02:31;;;;;;;;;;;7.50;90.30;;;;;;4317723;33;20017;-77
2021/03/16 01:04:58;;;;;;;;;;;7.50;90.30;;;;;;4317697;33;20403;-77
2021/03/16 01:07:25;;;;;;;;;;;7.60;90.30;;;;;;4317436;33;20754;-77
2021/03/16 01:09:52;;;;;;;;;;;7.60;90.30;;;;;;4318168;33;20434;-77
2021/03/16 01:12:21;;;;;;;;;;;7.60;90.30;;;;;;4317361;33;19998;-77
2021/03/16 01:14:53;;;;;;;;;;;7.60;90.30;;;;;;4304737;33;32314;-77
2021/03/16 01:17:23;;;;;;;;;;;7.60;90.30;;;;;;4329904;33;20018;-77
2021/03/16 01:19:50;;;;;;;;;;;7.50;90.30;;;;;;4318788;33;20043;-77
2021/03/16 01:22:16;;;;;;;;;;;7.50;90.40;;;;;;4317711;33;20001;-77
2021/03/16 01:24:46;;;;;;;;;;;7.50;90.40;;;;;;4317790;33;20040;-77
2021/03/16 01:27:15;;;;;;;;;;;7.50;90.40;;;;;;4318294;33;20024;-77
2021/03/16 01:29:42;;;;;;;;;;;7.50;90.50;;;;;;4317387;33;19998;-77
2021/03/16 01:32:11;;;;;;;;;;;7.50;90.50;;;;;;4318683;33;20061;-77
2021/03/16 01:34:41;;;;;;;;;;;7.50;90.50;;;;;;4305349;33;20018;-78
2021/03/16 01:37:10;;;;;;;;;;;7.50;90.50;;;;;;4316716;33;20458;-77
2021/03/16 01:39:37;;;;;;;;;;;7.50;90.60;;;;;;4329161;33;20037;-77
2021/03/16 01:42:11;;;;;;;;;;;7.50;90.60;;;;;;4317606;33;19998;-77
2021/03/16 01:44:42;;;;;;;;;;;7.50;90.60;;;;;;4317298;33;20486;-77
2021/03/16 01:47:14;;;;;;;;;;;7.40;90.60;;;;;;4317549;33;20013;-77
2021/03/16 01:49:44;;;;;;;;;;;7.40;90.60;;;;;;4317447;33;20077;-77
2021/03/16 01:52:12;;;;;;;;;;;7.40;90.60;;;;;;4316448;33;35944;-77
2021/03/16 01:54:40;;;;;;;;;;;7.50;90.70;;;;;;4318483;33;20068;-77
2021/03/16 01:57:13;;;;;;;;;;;7.40;90.70;;;;;;4316798;33;20074;-77
2021/03/16 01:59:40;;;;;;;;;;;7.40;90.70;;;;;;4316915;33;20391;-77
2021/03/16 02:02:10;;;;;;;;;;;7.40;90.80;;;;;;4322598;33;20108;-77
2021/03/16 02:04:40;;;;;;;;;;;7.40;90.70;;;;;;4318689;33;25793;-77
2021/03/16 02:07:13;;;;;;;;;;;7.40;90.70;;;;;;4319368;33;20459;-77
2021/03/16 02:09:47;;;;;;;;;;;7.40;90.70;;;;;;4319439;33;20024;-77
2021/03/16 02:12:26;;;;;;;;;;;7.40;90.70;;;;;;4319487;33;20010;-77
2021/03/16 02:15:03;;;;;;;;;;;7.40;90.80;;;;;;4332816;33;20069;-77
2021/03/16 02:17:36;;;;;;;;;;;7.40;90.80;;;;;;4319531;33;20019;-77
2021/03/16 02:20:09;;;;;;;;;;;7.40;90.80;;;;;;4319299;33;20005;-77
2021/03/16 02:22:39;;;;;;;;;;;7.40;90.80;;;;;;4318996;33;20080;-77
2021/03/16 02:25:12;;;;;;;;;;;7.40;90.80;;;;;;4307218;33;20034;-77
2021/03/16 02:27:49;;;;;;;;;;;7.40;90.80;;;;;;4319412;33;20001;-77
2021/03/16 02:30:19;;;;;;;;;;;7.40;90.80;;;;;;4318765;33;20017;-77
2021/03/16 02:32:49;;;;;;;;;;;7.40;90.80;;;;;;4319443;33;20013;-77
2021/03/16 02:35:22;;;;;;;;;;;7.40;90.80;;;;;;4332557;33;20040;-77
2021/03/16 02:37:54;;;;;;;;;;;7.40;90.70;;;;;;4319593;33;20016;-77
2021/03/16 02:40:25;;;;;;;;;;;7.40;90.70;;;;;;4319513;33;20035;-77
2021/03/16 02:42:54;;;;;;;;;;;7.40;90.70;;;;;;4319138;33;20076;-77
2021/03/16 02:45:21;;;;;;;;;;;7.40;90.80;;;;;;4318510;33;20441;-77
2021/03/16 02:47:53;;;;;;;;;;;7.40;90.80;;;;;;4306964;33;20101;-77
2021/03/16 02:50:23;;;;;;;;;;;7.40;90.80;;;;;;4319192;33;20073;-77
2021/03/16 02:52:55;;;;;;;;;;;7.40;90.80;;;;;;4319766;33;20009;-77
2021/03/16 02:55:30;;;;;;;;;;;7.30;90.90;;;;;;4319124;33;20027;-77
2021/03/16 02:57:59;;;;;;;;;;;7.30;90.90;;;;;;4331286;33;20085;-77
2021/03/16 03:00:29;;;;;;;;;;;7.30;90.90;;;;;;4318832;33;20020;-77
2021/03/16 03:02:58;;;;;;;;;;;7.30;90.90;;;;;;4331816;33;20051;-77
2021/03/16 03:05:28;;;;;;;;;;;7.30;90.90;;;;;;4331814;33;20069;-77
2021/03/16 03:07:58;;;;;;;;;;;7.30;90.90;;;;;;4306356;33;20018;-77
2021/03/16 03:10:27;;;;;;;;;;;7.40;90.90;;;;;;4319253;33;20006;-77
2021/03/16 03:12:57;;;;;;;;;;;7.40;90.80;;;;;;4318514;33;20053;-77
2021/03/16 03:15:24;;;;;;;;;;;7.40;90.90;;;;;;4306431;33;20045;-77
2021/03/16 03:17:53;;;;;;;;;;;7.30;90.90;;;;;;4305106;33;26412;-77
2021/03/16 03:20:23;;;;;;;;;;;7.40;90.90;;;;;;4318354;33;20014;-77
2021/03/16 03:22:53;;;;;;;;;;;7.40;90.90;;;;;;4331614;33;20022;-77
2021/03/16 03:25:23;;;;;;;;;;;7.40;90.90;;;;;;4317888;33;31710;-77
2021/03/16 03:27:53;;;;;;;;;;;7.30;90.90;;;;;;4318791;33;20006;-77
2021/03/16 03:30:25;;;;;;;;;;;7.30;91.00;;;;;;4331930;33;20009;-77
2021/03/16 03:32:54;;;;;;;;;;;7.30;91.00;;;;;;4306090;33;20009;-77
2021/03/16 03:35:23;;;;;;;;;;;7.30;91.00;;;;;;4318885;33;20057;-77
2021/03/16 03:37:53;;;;;;;;;;;7.30;91.00;;;;;;4318599;33;20018;-77
2021/03/16 03:40:26;;;;;;;;;;;7.30;91.10;;;;;;4331740;33;20417;-77
2021/03/16 03:43:04;;;;;;;;;;;7.30;91.10;;;;;;4318094;33;24133;-76
2021/03/16 03:45:33;;;;;;;;;;;7.30;91.10;;;;;;4318364;33;20399;-77
2021/03/16 03:48:01;;;;;;;;;;;7.30;91.10;;;;;;4306129;33;20016;-77
2021/03/16 03:50:31;;;;;;;;;;;7.30;91.10;;;;;;4318175;33;20489;-77
2021/03/16 03:52:59;;;;;;;;;;;7.30;91.10;;;;;;4331785;33;20021;-77
2021/03/16 03:55:27;;;;;;;;;;;7.30;91.20;;;;;;4331201;33;20013;-77
2021/03/16 03:57:55;;;;;;;;;;;7.30;91.20;;;;;;4318825;33;20016;-77
2021/03/16 04:00:25;;;;;;;;;;;7.30;91.20;;;;;;4331572;33;20024;-77
2021/03/16 04:02:52;;;;;;;;;;;7.30;91.20;;;;;;4305816;33;20073;-77
2021/03/16 04:05:25;;;;;;;;;;;7.30;91.20;;;;;;4305783;33;19998;-77
2021/03/16 04:07:52;;;;;;;;;;;7.20;91.20;;;;;;4306611;33;20002;-77
2021/03/16 04:10:19;;;;;;;;;;;7.30;91.20;;;;;;4306240;33;20001;-77
2021/03/16 04:12:47;;;;;;;;;;;7.30;91.20;;;;;;4331224;33;20010;-77
2021/03/16 04:15:15;;;;;;;;;;;7.30;91.20;;;;;;4318254;33;20002;-77
2021/03/16 04:17:48;;;;;;;;;;;7.30;91.20;;;;;;4317921;33;20477;-77
2021/03/16 04:20:15;;;;;;;;;;;7.30;91.30;;;;;;4318465;33;20001;-77
2021/03/16 04:22:46;;;;;;;;;;;7.30;91.30;;;;;;4318108;33;20081;-77
2021/03/16 04:25:13;;;;;;;;;;;7.30;91.30;;;;;;4305389;33;20008;-77
2021/03/16 04:27:40;;;;;;;;;;;7.20;91.30;;;;;;4317374;33;21893;-77
2021/03/16 04:30:08;;;;;;;;;;;7.20;91.30;;;;;;4307049;33;20053;-78
2021/03/16 04:32:35;;;;;;;;;;;7.20;91.20;;;;;;4308860;33;20013;-77
2021/03/16 04:35:03;;;;;;;;;;;7.20;91.30;;;;;;4321388;33;20029;-77
2021/03/16 04:37:33;;;;;;;;;;;7.20;91.30;;;;;;4308342;33;20016;-77
2021/03/16 04:40:00;;;;;;;;;;;7.20;91.30;;;;;;4319744;33;27634;-77
2021/03/16 04:42:30;;;;;;;;;;;7.20;91.30;;;;;;4320752;33;19994;-77
2021/03/16 04:44:56;;;;;;;;;;;7.20;91.30;;;;;;4333945;33;20025;-76
2021/03/16 04:47:26;;;;;;;;;;;7.20;91.40;;;;;;4308243;33;20415;-77
2021/03/16 04:49:53;;;;;;;;;;;7.20;91.40;;;;;;4308553;33;19998;-77
2021/03/16 04:52:20;;;;;;;;;;;7.20;91.40;;;;;;4320710;33;20048;-77
2021/03/16 04:54:50;;;;;;;;;;;7.20;91.30;;;;;;4320543;33;20433;-77
2021/03/16 04:57:17;;;;;;;;;;;7.20;91.40;;;;;;4320330;33;20001;-76
2021/03/16 04:59:49;;;;;;;;;;;7.20;91.30;;;;;;4308254;33;20009;-77
2021/03/16 05:02:19;;;;;;;;;;;7.20;91.30;;;;;;4307957;33;20010;-77
2021/03/16 05:04:46;;;;;;;;;;;7.20;91.30;;;;;;4319860;33;20014;-77
2021/03/16 05:07:16;;;;;;;;;;;7.10;91.30;;;;;;4308204;33;20470;-77
2021/03/16 05:09:45;;;;;;;;;;;7.20;91.40;;;;;;4319871;33;20029;-76
2021/03/16 05:12:15;;;;;;;;;;;7.10;91.40;;;;;;4308200;33;20446;-77
2021/03/16 05:14:42;;;;;;;;;;;7.10;91.40;;;;;;4320186;33;20425;-77
2021/03/16 05:17:10;;;;;;;;;;;7.20;91.40;;;;;;4308161;33;19998;-77
2021/03/16 05:19:39;;;;;;;;;;;7.20;91.40;;;;;;4308083;33;20008;-77
2021/03/16 05:22:09;;;;;;;;;;;7.20;91.30;;;;;;4319658;33;20450;-77
2021/03/16 05:24:36;;;;;;;;;;;7.20;91.30;;;;;;4320214;33;20009;-77
2021/03/16 05:27:03;;;;;;;;;;;7.20;91.30;;;;;;4320135;33;20001;-77
2021/03/16 05:29:34;;;;;;;;;;;7.10;91.40;;;;;;4320171;33;20015;-77
2021/03/16 05:32:03;;;;;;;;;;;7.10;91.40;;;;;;4319610;33;20050;-77
2021/03/16 05:34:30;;;;;;;;;;;7.10;91.30;;;;;;4332705;33;20005;-77
2021/03/16 05:36:57;;;;;;;;;;;7.10;91.30;;;;;;4320068;33;20437;-77
2021/03/16 05:39:24;;;;;;;;;;;7.20;91.30;;;;;;4320075;33;20006;-76
2021/03/16 05:41:52;;;;;;;;;;;7.10;91.30;;;;;;4319025;33;20039;-77
2021/03/16 05:44:22;;;;;;;;;;;7.10;91.30;;;;;;4307635;33;20020;-77
2021/03/16 05:46:49;;;;;;;;;;;7.10;91.30;;;;;;4307627;33;20104;-77
2021/03/16 05:49:20;;;;;;;;;;;7.10;91.30;;;;;;4319574;33;20017;-77
2021/03/16 05:51:49;;;;;;;;;;;7.10;91.30;;;;;;4307662;33;20014;-77
2021/03/16 05:54:17;;;;;;;;;;;7.10;91.30;;;;;;4318831;33;20368;-77
2021/03/16 05:56:44;;;;;;;;;;;7.10;91.30;;;;;;4319656;33;20020;-77
2021/03/16 05:59:24;;;;;;;;;;;7.10;91.20;;;;;;4308716;33;19997;-77
2021/03/16 06:01:52;;;;;;;;;;;7.10;91.20;;;;;;4316484;33;20020;-77
2021/03/16 06:04:19;;;;;;;;;;;7.10;91.20;;;;;;4317171;33;20095;-77
2021/03/16 06:06:46;;;;;;;;;;;7.10;91.20;;;;;;4305263;33;20443;-77
2021/03/16 06:09:19;;;;;;;;;;;7.10;91.20;;;;;;4316609;33;20013;-77
2021/03/16 06:11:52;;;;;;;;;;;7.00;91.20;;;;;;4316055;33;22515;-77
2021/03/16 06:14:28;;;;;;;;;;;7.00;91.20;;;;;;4304868;33;20071;-76
2021/03/16 06:16:55;;;;;;;;;;;7.00;91.20;;;;;;4317038;33;20068;-77
2021/03/16 06:19:32;;;;;;;;;;;7.00;91.20;;;;;;4316863;33;20010;-77
2021/03/16 06:22:02;;;;;;;;;;;7.10;91.20;;;;;;4304483;33;20127;-77
2021/03/16 06:24:30;;;;;;;;;;;7.00;91.20;;;;;;4304641;33;20022;-77
2021/03/16 06:27:02;;;;;;;;;;;7.10;91.20;;;;;;4328873;33;20442;-77
2021/03/16 06:29:46;;;;;;;;;;;7.00;91.20;;;;;;4306180;33;20431;-76
2021/03/16 06:32:18;;;;;;;;;;;7.00;91.20;;;;;;4316593;33;20022;-77
2021/03/16 06:34:46;;;;;;;;;;;7.10;91.20;;;;;;4328857;33;20467;-77
2021/03/16 06:37:20;;;;;;;;;;;7.00;91.20;;;;;;4304553;33;20422;-77
2021/03/16 06:39:53;;;;;;;;;;;7.00;91.20;;;;;;4304785;33;20016;-77
2021/03/16 06:42:23;;;;;;;;;;;7.00;91.20;;;;;;4316322;33;19998;-77
2021/03/16 06:44:58;;;;;;;;;;;7.00;91.20;;;;;;4304831;33;20032;-77
2021/03/16 06:47:28;;;;;;;;;;;7.00;91.20;;;;;;4316219;33;20013;-77
2021/03/16 06:50:00;;;;;;;;;;;7.00;91.20;;;;;;4304454;33;20001;-77
2021/03/16 06:52:33;;;;;;;;;;;7.00;91.20;;;;;;4316368;33;20006;-76
2021/03/16 06:55:13;;;;;;;;;;;7.00;91.20;;;;;;4316493;33;20010;-77
2021/03/16 06:57:45;;;;;;;;;;;7.00;91.20;;;;;;4316542;33;20057;-77
2021/03/16 07:00:12;;;;;;;;;;;7.00;91.20;;;;;;4315999;33;20041;-77
2021/03/16 07:02:46;;;;;;;;;;;7.00;91.20;;;;;;4303869;33;20038;-77
2021/03/16 07:05:24;;;;;;;;;;;7.00;91.20;;;;;;4304345;33;20396;-77
2021/03/16 07:07:54;;;;;;;;;;;7.00;91.20;;;;;;4316245;33;20012;-77
2021/03/16 07:10:24;;;;;;;;;;;7.00;91.30;;;;;;4316504;33;20443;-77
2021/03/16 07:12:55;;;;;;;;;;;7.00;91.30;;;;;;4315871;33;20006;-77
2021/03/16 07:15:28;;;;;;;;;;;7.00;91.20;;;;;;4304127;33;20014;-77
2021/03/16 07:17:58;;;;;;;;;;;7.00;91.20;;;;;;4316212;33;20057;-77
2021/03/16 07:20:32;;;;;;;;;;;7.00;91.20;;;;;;4316188;33;19994;-78
2021/03/16 07:23:03;;;;;;;;;;;7.00;91.30;;;;;;4316449;33;20050;-77
2021/03/16 07:25:36;;;;;;;;;;;7.00;91.30;;;;;;4328174;33;20053;-77
2021/03/16 07:28:13;;;;;;;;;;;7.00;91.30;;;;;;4316098;33;20005;-77
2021/03/16 07:30:45;;;;;;;;;;;7.00;91.30;;;;;;4317409;33;19998;-77
2021/03/16 07:33:18;;;;;;;;;;;7.00;91.30;;;;;;4316223;33;20013;-77
2021/03/16 07:35:48;;;;;;;;;;;7.10;91.30;;;;;;4316105;33;20419;-77
2021/03/16 07:38:21;;;;;;;;;;;7.00;91.30;;;;;;4304309;33;20032;-77
2021/03/16 07:40:56;;;;;;;;;;;7.10;91.30;;;;;;4315769;33;20426;-77
2021/03/16 07:43:33;;;;;;;;;;;7.10;91.40;;;;;;4315874;33;20046;-77
2021/03/16 07:46:10;;;;;;;;;;;7.10;91.40;;;;;;4328344;33;20006;-77
2021/03/16 07:48:46;;;;;;;;;;;7.10;91.50;;;;;;4316277;33;20391;-77
2021/03/16 07:51:23;;;;;;;;;;;7.00;91.40;;;;;;4316178;33;20013;-77
2021/03/16 07:54:06;;;;;;;;;;;7.10;91.50;;;;;;4316049;33;20017;-77
2021/03/16 07:56:35;;;;;;;;;;;7.10;91.50;;;;;;4315849;33;20005;-77
2021/03/16 07:59:03;;;;;;;;;;;7.00;91.50;;;;;;4317045;33;20061;-77
2021/03/16 08:01:30;;;;;;;;;;;7.00;91.50;;;;;;4316133;33;20053;-77
2021/03/16 08:04:12;;;;;;;;;;;7.00;91.60;;;;;;4306639;33;19997;-77
2021/03/16 08:06:44;;;;;;;;;;;7.00;91.60;;;;;;4332796;33;23871;-77
2021/03/16 08:09:29;;;;;;;;;;;7.00;91.60;;;;;;4334260;33;20017;-77
2021/03/16 08:12:25;;;;;;;;;;;7.00;91.60;;;;;;4323189;33;20371;-77
2021/03/16 08:15:13;;;;;;;;;;;7.00;91.60;;;;;;4309501;33;20013;-77
2021/03/16 08:17:58;;;;;;;;;;;7.10;91.70;;;;;;4322026;33;20043;-77
2021/03/16 08:20:32;;;;;;;;;;;7.00;91.60;;;;;;4321310;33;20057;-78
2021/03/16 08:23:13;;;;;;;;;;;7.10;91.70;;;;;;4321791;33;20026;-77
2021/03/16 08:25:46;;;;;;;;;;;7.10;91.70;;;;;;4321136;33;20021;-77
2021/03/16 08:28:20;;;;;;;;;;;7.10;91.70;;;;;;4320964;33;20044;-76
2021/03/16 08:30:53;;;;;;;;;;;7.10;91.70;;;;;;4320824;33;20019;-77
2021/03/16 08:33:23;;;;;;;;;;;7.00;91.80;;;;;;4334264;33;20048;-77
2021/03/16 08:35:54;;;;;;;;;;;7.00;91.80;;;;;;4308580;33;20012;-77
2021/03/16 08:38:33;;;;;;;;;;;7.10;91.90;;;;;;4332997;33;19994;-77
2021/03/16 08:41:17;;;;;;;;;;;7.00;91.80;;;;;;4308802;33;20117;-77
2021/03/16 08:43:48;;;;;;;;;;;7.10;91.90;;;;;;4320844;33;20019;-77
2021/03/16 08:46:28;;;;;;;;;;;7.00;91.90;;;;;;4321180;33;20001;-77
2021/03/16 08:49:03;;;;;;;;;;;7.00;91.90;;;;;;4321297;33;20045;-77
2021/03/16 08:51:33;;;;;;;;;;;7.00;92.00;;;;;;4333879;33;20009;-77
2021/03/16 08:54:06;;;;;;;;;;;7.00;92.00;;;;;;4333108;33;20446;-77
2021/03/16 08:56:32;;;;;;;;;;;7.10;92.00;;;;;;4332523;33;19998;-77
2021/03/16 08:59:03;;;;;;;;;;;7.10;92.00;;;;;;4308324;33;20095;-78
2021/03/16 09:01:49;;;;;;;;;;;7.10;92.00;;;;;;4333677;33;20044;-77
2021/03/16 09:04:17;;;;;;;;;;;7.10;92.00;;;;;;4307844;33;20433;-77
2021/03/16 09:06:51;;;;;;;;;;;7.10;92.00;;;;;;4308000;33;20013;-77
2021/03/16 09:09:25;;;;;;;;;;;7.10;92.00;;;;;;4333992;33;20069;-77
2021/03/16 09:11:52;;;;;;;;;;;7.10;92.10;;;;;;4308297;33;20027;-77
2021/03/16 09:14:21;;;;;;;;;;;7.10;92.00;;;;;;4319581;33;28209;-77
2021/03/16 09:16:52;;;;;;;;;;;7.10;92.40;;;;;;4318890;33;34757;-77
2021/03/16 09:19:32;;;;;;;;;;;7.10;92.10;;;;;;4333365;33;20107;-77
2021/03/16 09:22:05;;;;;;;;;;;7.10;92.10;;;;;;4308038;33;19998;-78
2021/03/16 09:24:32;;;;;;;;;;;7.10;92.10;;;;;;4319462;33;27995;-77
2021/03/16 09:27:07;;;;;;;;;;;7.20;92.10;;;;;;4319841;33;20522;-77
2021/03/16 09:29:36;;;;;;;;;;;7.20;92.10;;;;;;4320208;33;20044;-77
2021/03/16 09:32:15;;;;;;;;;;;7.10;92.20;;;;;;4320078;33;19998;-76
2021/03/16 09:34:45;;;;;;;;;;;7.10;92.20;;;;;;4331713;33;20019;-77
2021/03/16 09:37:14;;;;;;;;;;;7.10;92.20;;;;;;4319466;33;19997;-77
2021/03/16 09:39:51;;;;;;;;;;;7.20;92.20;;;;;;4307457;33;20020;-77
2021/03/16 09:42:29;;;;;;;;;;;7.10;92.20;;;;;;4333292;33;20019;-77
2021/03/16 09:44:58;;;;;;;;;;;7.20;92.30;;;;;;4333604;33;20023;-77
2021/03/16 09:47:37;;;;;;;;;;;7.20;92.20;;;;;;4308951;33;20002;-77
2021/03/16 09:50:09;;;;;;;;;;;7.20;92.30;;;;;;4307731;33;20037;-77
2021/03/16 09:52:42;;;;;;;;;;;7.20;92.30;;;;;;4308150;33;20013;-77
2021/03/16 09:55:16;;;;;;;;;;;7.20;92.30;;;;;;4307259;33;20017;-77
2021/03/16 09:57:54;;;;;;;;;;;7.30;92.30;;;;;;4333279;33;20065;-77
2021/03/16 10:00:25;;;;;;;;;;;7.20;92.20;;;;;;4333117;33;20037;-76
2021/03/16 10:03:06;;;;;;;;;;;7.20;92.20;;;;;;4318243;33;33061;-77
2021/03/16 10:05:39;;;;;;;;;;;7.20;92.60;;;;;;4307165;33;20031;-77
2021/03/16 10:08:09;;;;;;;;;;;7.20;92.20;;;;;;4319678;33;20028;-77
2021/03/16 10:10:39;;;;;;;;;;;7.20;92.20;;;;;;4319525;33;20057;-77
2021/03/16 10:13:10;;;;;;;;;;;7.20;92.20;;;;;;4307294;33;19997;-77
2021/03/16 10:15:43;;;;;;;;;;;7.20;92.20;;;;;;4332856;33;20351;-77
2021/03/16 10:18:11;;;;;;;;;;;7.20;92.20;;;;;;4319001;33;22245;-77
2021/03/16 10:20:46;;;;;;;;;;;7.20;92.20;;;;;;4319398;33;20061;-76
2021/03/16 10:23:21;;;;;;;;;;;7.20;92.20;;;;;;4307490;33;19994;-76
2021/03/16 10:26:00;;;;;;;;;;;7.20;92.20;;;;;;4319536;33;20005;-77
2021/03/16 10:28:35;;;;;;;;;;;7.20;92.20;;;;;;4318759;33;20019;-76
2021/03/16 10:31:09;;;;;;;;;;;7.20;92.20;;;;;;4319306;33;20014;-77
2021/03/16 10:33:42;;;;;;;;;;;7.20;92.20;;;;;;4307090;33;20091;-77
2021/03/16 10:36:10;;;;;;;;;;;7.20;92.10;;;;;;4319445;33;20095;-77
2021/03/16 10:38:37;;;;;;;;;;;7.20;92.10;;;;;;4317824;33;33261;-77
2021/03/16 10:41:06;;;;;;;;;;;7.20;92.10;;;;;;4332116;33;20043;-77
2021/03/16 10:43:36;;;;;;;;;;;7.20;92.10;;;;;;4319528;33;20026;-77
2021/03/16 10:46:03;;;;;;;;;;;7.20;92.10;;;;;;4306521;33;20021;-77
2021/03/16 10:48:37;;;;;;;;;;;7.20;92.00;;;;;;4320147;33;20025;-77
2021/03/16 10:51:04;;;;;;;;;;;7.20;92.00;;;;;;4306603;33;20371;-77
2021/03/16 10:53:31;;;;;;;;;;;7.20;92.00;;;;;;4318030;33;30905;-77
2021/03/16 10:56:02;;;;;;;;;;;7.20;92.00;;;;;;4317577;33;36725;-77
2021/03/16 10:58:33;;;;;;;;;;;7.20;91.90;;;;;;4306824;33;20069;-77
2021/03/16 11:01:03;;;;;;;;;;;7.20;92.00;;;;;;4331504;33;20080;-77
2021/03/16 11:03:33;;;;;;;;;;;7.20;92.00;;;;;;4318572;33;20017;-77
2021/03/16 11:06:02;;;;;;;;;;;7.20;92.00;;;;;;4306718;33;20002;-77
2021/03/16 11:08:33;;;;;;;;;;;7.20;91.90;;;;;;4318321;33;20490;-77
2021/03/16 11:11:05;;;;;;;;;;;7.20;91.90;;;;;;4306821;33;20053;-77
2021/03/16 11:13:36;;;;;;;;;;;7.20;91.80;;;;;;4331667;33;20021;-77
2021/03/16 11:16:03;;;;;;;;;;;7.20;91.80;;;;;;4306238;33;20027;-77
2021/03/16 11:18:34;;;;;;;;;;;7.20;91.70;;;;;;4306927;33;19990;-77
2021/03/16 11:21:01;;;;;;;;;;;7.20;91.70;;;;;;4305239;33;36669;-77
2021/03/16 11:23:33;;;;;;;;;;;7.20;91.70;;;;;;4331539;33;20026;-77
2021/03/16 11:26:03;;;;;;;;;;;7.20;91.70;;;;;;4331989;33;20099;-77
2021/03/16 11:28:30;;;;;;;;;;;7.20;91.60;;;;;;4306139;33;20514;-77
2021/03/16 11:30:59;;;;;;;;;;;7.20;91.60;;;;;;4306225;33;20061;-77
2021/03/16 11:33:26;;;;;;;;;;;7.20;91.50;;;;;;4317803;33;20005;-77
2021/03/16 11:35:57;;;;;;;;;;;7.30;91.60;;;;;;4331907;33;20403;-77
2021/03/16 11:38:27;;;;;;;;;;;7.20;91.50;;;;;;4318466;33;20354;-77
2021/03/16 11:40:54;;;;;;;;;;;7.20;91.50;;;;;;4320973;33;20013;-77
2021/03/16 11:43:26;;;;;;;;;;;7.20;91.60;;;;;;4310043;33;20017;-77
2021/03/16 11:45:55;;;;;;;;;;;7.20;91.50;;;;;;4321252;33;20014;-77
2021/03/16 11:48:25;;;;;;;;;;;7.20;91.50;;;;;;4308865;33;19997;-77
2021/03/16 11:50:53;;;;;;;;;;;7.20;91.50;;;;;;4321330;33;20005;-77
2021/03/16 11:53:20;;;;;;;;;;;7.30;91.50;;;;;;4309335;33;20057;-77
2021/03/16 11:55:47;;;;;;;;;;;7.20;91.50;;;;;;4321213;33;20024;-77
2021/03/16 11:58:20;;;;;;;;;;;7.30;91.60;;;;;;4321925;33;20028;-77
2021/03/16 12:00:54;;;;;;;;;;;7.20;91.60;;;;;;4321070;33;20044;-77
2021/03/16 12:03:25;;;;;;;;;;;7.20;91.60;;;;;;4321127;33;20053;-77
2021/03/16 12:05:57;;;;;;;;;;;7.20;91.70;;;;;;4321018;33;20053;-77
2021/03/16 12:08:24;;;;;;;;;;;7.20;91.70;;;;;;4309291;33;20005;-77
2021/03/16 12:10:54;;;;;;;;;;;7.20;91.70;;;;;;4308704;33;20426;-78
2021/03/16 12:13:24;;;;;;;;;;;7.20;91.70;;;;;;4309029;33;20020;-77
2021/03/16 12:15:53;;;;;;;;;;;7.20;91.70;;;;;;4308596;33;20009;-77
2021/03/16 12:18:26;;;;;;;;;;;7.30;91.70;;;;;;4308744;33;20002;-77
2021/03/16 12:20:57;;;;;;;;;;;7.20;91.70;;;;;;4309148;33;20012;-77
2021/03/16 12:23:27;;;;;;;;;;;7.20;91.70;;;;;;4309253;33;20355;-77
2021/03/16 12:25:54;;;;;;;;;;;7.20;91.70;;;;;;4321103;33;20008;-77
2021/03/16 12:28:21;;;;;;;;;;;7.20;91.60;;;;;;4320489;33;20407;-77
2021/03/16 12:30:53;;;;;;;;;;;7.20;91.60;;;;;;4308507;33;20056;-77
2021/03/16 12:33:23;;;;;;;;;;;7.20;91.60;;;;;;4320725;33;20109;-77
2021/03/16 12:35:52;;;;;;;;;;;7.20;91.60;;;;;;4333822;33;20107;-77
2021/03/16 12:38:21;;;;;;;;;;;7.20;91.70;;;;;;4333100;33;20010;-77
2021/03/16 12:40:48;;;;;;;;;;;7.20;91.60;;;;;;4320653;33;20024;-77
2021/03/16 12:43:20;;;;;;;;;;;7.20;91.70;;;;;;4308012;33;24310;-77
2021/03/16 12:45:49;;;;;;;;;;;7.30;91.70;;;;;;4320350;33;20009;-77
2021/03/16 12:48:16;;;;;;;;;;;7.30;91.70;;;;;;4320377;33;19997;-77
2021/03/16 12:50:46;;;;;;;;;;;7.30;91.70;;;;;;4308518;33;20005;-77
2021/03/16 12:53:16;;;;;;;;;;;7.30;91.70;;;;;;4319912;33;20052;-77
2021/03/16 12:55:43;;;;;;;;;;;7.30;91.70;;;;;;4320599;33;20008;-77
2021/03/16 12:58:10;;;;;;;;;;;7.30;91.80;;;;;;4320107;33;20482;-77
2021/03/16 13:00:39;;;;;;;;;;;7.30;91.70;;;;;;4308011;33;20002;-76
2021/03/16 13:03:07;;;;;;;;;;;7.20;91.70;;;;;;4320710;33;20017;-77
2021/03/16 13:05:35;;;;;;;;;;;7.30;91.80;;;;;;4320404;33;20017;-77
2021/03/16 13:08:09;;;;;;;;;;;7.20;91.80;;;;;;4308961;33;20002;-77
2021/03/16 13:10:36;;;;;;;;;;;7.30;91.80;;;;;;4307244;33;23609;-77
2021/03/16 13:13:06;;;;;;;;;;;7.20;91.80;;;;;;4333703;33;20447;-76
2021/03/16 13:15:40;;;;;;;;;;;7.20;91.80;;;;;;4308042;33;20001;-77
2021/03/16 13:18:32;;;;;;;;;;;7.20;91.90;;;;;;4323001;33;20009;-77
2021/03/16 13:21:01;;;;;;;;;;;7.20;91.90;;;;;;4308176;33;19998;-77
2021/03/16 13:23:33;;;;;;;;;;;7.20;91.90;;;;;;4320166;33;20388;-77
2021/03/16 13:26:03;;;;;;;;;;;7.20;91.90;;;;;;4333302;33;20084;-77
2021/03/16 13:28:33;;;;;;;;;;;7.20;91.90;;;;;;4333516;33;20079;-77
2021/03/16 13:31:02;;;;;;;;;;;7.20;92.00;;;;;;4333175;33;20001;-77
2021/03/16 13:33:29;;;;;;;;;;;7.10;92.00;;;;;;4319523;33;24699;-77
2021/03/16 13:35:56;;;;;;;;;;;7.20;92.00;;;;;;4318930;33;21931;-77
2021/03/16 13:38:23;;;;;;;;;;;7.20;92.00;;;;;;4319155;33;28405;-77
2021/03/16 13:40:50;;;;;;;;;;;7.10;92.10;;;;;;4319716;33;20052;-77
2021/03/16 13:43:21;;;;;;;;;;;7.20;92.10;;;;;;4332851;33;20041;-77
2021/03/16 13:45:51;;;;;;;;;;;7.20;92.10;;;;;;4319860;33;20403;-77
2021/03/16 13:48:18;;;;;;;;;;;7.20;92.10;;;;;;4307301;33;20011;-77
2021/03/16 13:50:45;;;;;;;;;;;7.20;92.10;;;;;;4307187;33;22655;-77
2021/03/16 13:53:14;;;;;;;;;;;7.20;92.10;;;;;;4332857;33;20039;-77
2021/03/16 13:55:45;;;;;;;;;;;7.20;92.10;;;;;;4333141;33;20009;-77
2021/03/16 13:58:14;;;;;;;;;;;7.20;92.00;;;;;;4318868;33;23137;-77
2021/03/16 14:00:41;;;;;;;;;;;7.20;92.00;;;;;;4306809;33;20061;-77
2021/03/16 14:03:11;;;;;;;;;;;7.20;92.10;;;;;;4306658;33;20006;-77
2021/03/16 14:05:44;;;;;;;;;;;7.20;92.00;;;;;;4319879;33;20052;-77
2021/03/16 14:08:14;;;;;;;;;;;7.20;92.10;;;;;;4307428;33;19998;-77
2021/03/16 14:10:44;;;;;;;;;;;7.20;92.10;;;;;;4319743;33;20022;-77
2021/03/16 14:13:14;;;;;;;;;;;7.20;92.10;;;;;;4307359;33;20070;-77
2021/03/16 14:15:43;;;;;;;;;;;7.20;92.10;;;;;;4319333;33;20098;-77
2021/03/16 14:18:16;;;;;;;;;;;7.20;92.10;;;;;;4307777;33;20077;-77
2021/03/16 14:20:43;;;;;;;;;;;7.20;92.10;;;;;;4319323;33;20403;-77
2021/03/16 14:23:13;;;;;;;;;;;7.20;92.10;;;;;;4319834;33;20458;-77
2021/03/16 14:25:44;;;;;;;;;;;7.20;92.10;;;;;;4306912;33;20095;-77
2021/03/16 14:28:13;;;;;;;;;;;7.20;92.10;;;;;;4306749;33;20076;-74
2021/03/16 14:30:40;;;;;;;;;;;7.30;92.10;;;;;;4319013;33;20459;-77
2021/03/16 14:33:10;;;;;;;;;;;7.30;92.10;;;;;;4306787;33;19998;-77
2021/03/16 14:35:39;;;;;;;;;;;7.30;92.20;;;;;;4332114;33;20009;-77
2021/03/16 14:38:11;;;;;;;;;;;7.30;92.20;;;;;;4306710;33;20001;-77
2021/03/16 14:40:38;;;;;;;;;;;7.30;92.20;;;;;;4307055;33;20421;-77
2021/03/16 14:43:09;;;;;;;;;;;7.30;92.20;;;;;;4307372;33;20012;-77
2021/03/16 14:45:42;;;;;;;;;;;7.30;92.20;;;;;;4306575;33;20408;-76
2021/03/16 14:48:11;;;;;;;;;;;7.20;92.20;;;;;;4306432;33;22781;-77
2021/03/16 14:50:39;;;;;;;;;;;7.20;92.20;;;;;;4307039;33;20009;-77